Terminal Aerodrome Forecast
Issued by NWS Missoula, MT

Current Version | Previous Version | Text Only | Print | Product List | Glossary On
Versions: 1 2 3 4 5 6 7 8 9 10 11 12 13
471
FTUS45 KMSO 261059 AAA
TAFGPI
TAF AMD
KGPI 261059Z 2611/2706 00000KT 1/4SM FG VV001
     FM261200 00000KT 2SM BR BKN008
      TEMPO 2612/2614 1/2SM FG VV002
     FM261500 16006KT P6SM BKN080
     FM270000 17005KT P6SM SKC=

USA.gov is the U.S. government's official web portal to all federal, state and local government web resources and services.